sensor_id;sensor_type;location;lat;lon;timestamp;temperature;humidity
56172;DHT22;42052;41.634;-0.946;2024-01-06T00:01:52;20.20;43.80
56172;DHT22;42052;41.634;-0.946;2024-01-06T00:04:18;20.20;43.70
56172;DHT22;42052;41.634;-0.946;2024-01-06T00:06:44;20.20;43.80
56172;DHT22;42052;41.634;-0.946;2024-01-06T00:09:09;20.20;43.80
56172;DHT22;42052;41.634;-0.946;2024-01-06T00:11:35;20.20;43.80
56172;DHT22;42052;41.634;-0.946;2024-01-06T00:14:01;20.20;43.90
56172;DHT22;42052;41.634;-0.946;2024-01-06T00:16:27;20.20;43.70
56172;DHT22;42052;41.634;-0.946;2024-01-06T00:18:53;20.20;43.60
56172;DHT22;42052;41.634;-0.946;2024-01-06T00:21:18;20.20;43.90
56172;DHT22;42052;41.634;-0.946;2024-01-06T00:23:44;20.20;44.10
56172;DHT22;42052;41.634;-0.946;2024-01-06T00:26:10;20.20;44.00
56172;DHT22;42052;41.634;-0.946;2024-01-06T00:28:37;20.10;44.00
56172;DHT22;42052;41.634;-0.946;2024-01-06T00:31:04;20.10;44.00
56172;DHT22;42052;41.634;-0.946;2024-01-06T00:33:30;20.10;44.00
56172;DHT22;42052;41.634;-0.946;2024-01-06T00:35:55;20.10;44.00
56172;DHT22;42052;41.634;-0.946;2024-01-06T00:38:21;20.10;44.00
56172;DHT22;42052;41.634;-0.946;2024-01-06T00:40:47;20.10;43.90
56172;DHT22;42052;41.634;-0.946;2024-01-06T00:43:13;20.10;44.00
56172;DHT22;42052;41.634;-0.946;2024-01-06T00:45:39;20.10;44.00
56172;DHT22;42052;41.634;-0.946;2024-01-06T00:48:07;20.10;44.00
56172;DHT22;42052;41.634;-0.946;2024-01-06T00:50:32;20.10;44.00
56172;DHT22;42052;41.634;-0.946;2024-01-06T00:52:58;20.10;44.00
56172;DHT22;42052;41.634;-0.946;2024-01-06T00:55:24;20.10;44.00
56172;DHT22;42052;41.634;-0.946;2024-01-06T00:57:51;20.10;44.10
56172;DHT22;42052;41.634;-0.946;2024-01-06T01:00:17;20.10;44.10
56172;DHT22;42052;41.634;-0.946;2024-01-06T01:02:43;20.10;44.00
56172;DHT22;42052;41.634;-0.946;2024-01-06T01:05:09;20.00;44.00
56172;DHT22;42052;41.634;-0.946;2024-01-06T01:07:35;20.00;44.00
56172;DHT22;42052;41.634;-0.946;2024-01-06T01:10:01;20.00;44.00
56172;DHT22;42052;41.634;-0.946;2024-01-06T01:12:27;20.00;44.10
56172;DHT22;42052;41.634;-0.946;2024-01-06T01:14:53;20.00;44.10
56172;DHT22;42052;41.634;-0.946;2024-01-06T01:17:19;20.00;44.00
56172;DHT22;42052;41.634;-0.946;2024-01-06T01:19:45;20.00;43.90
56172;DHT22;42052;41.634;-0.946;2024-01-06T01:22:11;20.00;44.10
56172;DHT22;42052;41.634;-0.946;2024-01-06T01:24:37;20.00;44.00
56172;DHT22;42052;41.634;-0.946;2024-01-06T01:27:03;20.00;44.10
56172;DHT22;42052;41.634;-0.946;2024-01-06T01:29:29;20.00;44.10
56172;DHT22;42052;41.634;-0.946;2024-01-06T01:31:55;20.00;44.00
56172;DHT22;42052;41.634;-0.946;2024-01-06T01:34:21;20.00;44.00
56172;DHT22;42052;41.634;-0.946;2024-01-06T01:36:46;19.90;43.80
56172;DHT22;42052;41.634;-0.946;2024-01-06T01:39:12;19.90;43.70
56172;DHT22;42052;41.634;-0.946;2024-01-06T01:41:39;20.00;43.80
56172;DHT22;42052;41.634;-0.946;2024-01-06T01:44:05;19.90;44.70
56172;DHT22;42052;41.634;-0.946;2024-01-06T01:46:31;19.90;43.80
56172;DHT22;42052;41.634;-0.946;2024-01-06T01:48:58;19.90;43.90
56172;DHT22;42052;41.634;-0.946;2024-01-06T01:51:28;19.90;43.80
56172;DHT22;42052;41.634;-0.946;2024-01-06T01:53:55;19.90;44.00
56172;DHT22;42052;41.634;-0.946;2024-01-06T01:56:21;19.90;43.90
56172;DHT22;42052;41.634;-0.946;2024-01-06T01:58:47;19.90;43.90
56172;DHT22;42052;41.634;-0.946;2024-01-06T02:01:14;19.90;43.70
56172;DHT22;42052;41.634;-0.946;2024-01-06T02:03:43;19.90;43.90
56172;DHT22;42052;41.634;-0.946;2024-01-06T02:06:10;19.90;43.80
56172;DHT22;42052;41.634;-0.946;2024-01-06T02:08:36;19.80;43.80
56172;DHT22;42052;41.634;-0.946;2024-01-06T02:11:02;19.80;44.00
56172;DHT22;42052;41.634;-0.946;2024-01-06T02:13:36;19.80;44.00
56172;DHT22;42052;41.634;-0.946;2024-01-06T02:16:04;19.80;43.70
56172;DHT22;42052;41.634;-0.946;2024-01-06T02:18:33;19.80;43.90
56172;DHT22;42052;41.634;-0.946;2024-01-06T02:21:01;19.80;43.90
56172;DHT22;42052;41.634;-0.946;2024-01-06T02:23:28;19.80;44.00
56172;DHT22;42052;41.634;-0.946;2024-01-06T02:25:54;19.80;43.80
56172;DHT22;42052;41.634;-0.946;2024-01-06T02:28:21;19.80;43.90
56172;DHT22;42052;41.634;-0.946;2024-01-06T02:30:47;19.80;44.00
56172;DHT22;42052;41.634;-0.946;2024-01-06T02:33:13;19.80;43.70
56172;DHT22;42052;41.634;-0.946;2024-01-06T02:35:39;19.80;43.90
56172;DHT22;42052;41.634;-0.946;2024-01-06T02:38:06;19.80;43.90
56172;DHT22;42052;41.634;-0.946;2024-01-06T02:40:32;19.80;43.90
56172;DHT22;42052;41.634;-0.946;2024-01-06T02:42:59;19.70;43.90
56172;DHT22;42052;41.634;-0.946;2024-01-06T02:45:25;19.80;44.00
56172;DHT22;42052;41.634;-0.946;2024-01-06T02:47:51;19.80;43.90
56172;DHT22;42052;41.634;-0.946;2024-01-06T02:50:17;19.80;43.80
56172;DHT22;42052;41.634;-0.946;2024-01-06T02:52:44;19.70;43.90
56172;DHT22;42052;41.634;-0.946;2024-01-06T02:55:13;19.70;43.90
56172;DHT22;42052;41.634;-0.946;2024-01-06T02:57:39;19.70;43.90
56172;DHT22;42052;41.634;-0.946;2024-01-06T03:00:07;19.70;43.90
56172;DHT22;42052;41.634;-0.946;2024-01-06T03:02:34;19.70;43.90
56172;DHT22;42052;41.634;-0.946;2024-01-06T03:05:02;19.70;43.80
56172;DHT22;42052;41.634;-0.946;2024-01-06T03:07:27;19.70;44.00
56172;DHT22;42052;41.634;-0.946;2024-01-06T03:09:53;19.70;43.90
56172;DHT22;42052;41.634;-0.946;2024-01-06T03:12:19;19.70;43.90
56172;DHT22;42052;41.634;-0.946;2024-01-06T03:14:45;19.70;43.80
56172;DHT22;42052;41.634;-0.946;2024-01-06T03:17:11;19.70;44.00
56172;DHT22;42052;41.634;-0.946;2024-01-06T03:19:37;19.70;43.90
56172;DHT22;42052;41.634;-0.946;2024-01-06T03:22:03;19.70;43.90
56172;DHT22;42052;41.634;-0.946;2024-01-06T03:24:29;19.70;43.80
56172;DHT22;42052;41.634;-0.946;2024-01-06T03:26:56;19.70;43.90
56172;DHT22;42052;41.634;-0.946;2024-01-06T03:29:22;19.70;43.90
56172;DHT22;42052;41.634;-0.946;2024-01-06T03:31:48;19.60;43.80
56172;DHT22;42052;41.634;-0.946;2024-01-06T03:34:14;19.60;43.80
56172;DHT22;42052;41.634;-0.946;2024-01-06T03:36:40;19.60;43.80
56172;DHT22;42052;41.634;-0.946;2024-01-06T03:39:07;19.60;43.90
56172;DHT22;42052;41.634;-0.946;2024-01-06T03:41:32;19.60;43.80
56172;DHT22;42052;41.634;-0.946;2024-01-06T03:43:59;19.60;43.90
56172;DHT22;42052;41.634;-0.946;2024-01-06T03:46:25;19.60;44.00
56172;DHT22;42052;41.634;-0.946;2024-01-06T03:48:51;19.60;43.80
56172;DHT22;42052;41.634;-0.946;2024-01-06T03:51:17;19.60;43.90
56172;DHT22;42052;41.634;-0.946;2024-01-06T03:53:43;19.60;43.90
56172;DHT22;42052;41.634;-0.946;2024-01-06T03:56:09;19.60;43.80
56172;DHT22;42052;41.634;-0.946;2024-01-06T03:58:35;19.60;43.80
56172;DHT22;42052;41.634;-0.946;2024-01-06T04:01:01;19.60;43.80
56172;DHT22;42052;41.634;-0.946;2024-01-06T04:03:27;19.60;43.90
56172;DHT22;42052;41.634;-0.946;2024-01-06T04:05:53;19.60;43.70
56172;DHT22;42052;41.634;-0.946;2024-01-06T04:08:19;19.60;43.70
56172;DHT22;42052;41.634;-0.946;2024-01-06T04:10:45;19.60;43.70
56172;DHT22;42052;41.634;-0.946;2024-01-06T04:13:11;19.60;44.20
56172;DHT22;42052;41.634;-0.946;2024-01-06T04:15:37;19.60;44.00
56172;DHT22;42052;41.634;-0.946;2024-01-06T04:18:04;19.60;44.00
56172;DHT22;42052;41.634;-0.946;2024-01-06T04:20:31;19.60;44.10
56172;DHT22;42052;41.634;-0.946;2024-01-06T04:22:57;19.50;44.70
56172;DHT22;42052;41.634;-0.946;2024-01-06T04:25:23;19.50;43.80
56172;DHT22;42052;41.634;-0.946;2024-01-06T04:27:49;19.50;44.00
56172;DHT22;42052;41.634;-0.946;2024-01-06T04:30:16;19.50;44.00
56172;DHT22;42052;41.634;-0.946;2024-01-06T04:32:42;19.50;44.00
56172;DHT22;42052;41.634;-0.946;2024-01-06T04:35:08;19.50;43.80
56172;DHT22;42052;41.634;-0.946;2024-01-06T04:37:34;19.50;43.80
56172;DHT22;42052;41.634;-0.946;2024-01-06T04:40:00;19.50;44.00
56172;DHT22;42052;41.634;-0.946;2024-01-06T04:42:26;19.50;44.00
56172;DHT22;42052;41.634;-0.946;2024-01-06T04:44:52;19.50;44.00
56172;DHT22;42052;41.634;-0.946;2024-01-06T04:47:18;19.50;44.00
56172;DHT22;42052;41.634;-0.946;2024-01-06T04:49:44;19.50;44.10
56172;DHT22;42052;41.634;-0.946;2024-01-06T04:52:11;19.50;44.10
56172;DHT22;42052;41.634;-0.946;2024-01-06T04:54:37;19.50;44.10
56172;DHT22;42052;41.634;-0.946;2024-01-06T04:57:03;19.50;44.00
56172;DHT22;42052;41.634;-0.946;2024-01-06T04:59:30;19.50;43.90
56172;DHT22;42052;41.634;-0.946;2024-01-06T05:01:57;19.50;44.10
56172;DHT22;42052;41.634;-0.946;2024-01-06T05:04:24;19.40;43.90
56172;DHT22;42052;41.634;-0.946;2024-01-06T05:06:51;19.40;44.00
56172;DHT22;42052;41.634;-0.946;2024-01-06T05:09:18;19.40;44.10
56172;DHT22;42052;41.634;-0.946;2024-01-06T05:11:44;19.40;44.10
56172;DHT22;42052;41.634;-0.946;2024-01-06T05:14:11;19.40;44.20
56172;DHT22;42052;41.634;-0.946;2024-01-06T05:16:37;19.40;44.00
56172;DHT22;42052;41.634;-0.946;2024-01-06T05:19:03;19.40;43.90
56172;DHT22;42052;41.634;-0.946;2024-01-06T05:21:29;19.40;44.20
56172;DHT22;42052;41.634;-0.946;2024-01-06T05:23:55;19.50;44.40
56172;DHT22;42052;41.634;-0.946;2024-01-06T05:26:21;19.50;44.40
56172;DHT22;42052;41.634;-0.946;2024-01-06T05:28:47;19.50;44.30
56172;DHT22;42052;41.634;-0.946;2024-01-06T05:31:13;19.60;44.20
56172;DHT22;42052;41.634;-0.946;2024-01-06T05:33:39;19.60;44.20
56172;DHT22;42052;41.634;-0.946;2024-01-06T05:36:05;19.60;44.00
56172;DHT22;42052;41.634;-0.946;2024-01-06T05:38:31;19.70;44.00
56172;DHT22;42052;41.634;-0.946;2024-01-06T05:40:57;19.70;44.00
56172;DHT22;42052;41.634;-0.946;2024-01-06T05:43:23;19.70;43.90
56172;DHT22;42052;41.634;-0.946;2024-01-06T05:45:49;19.70;43.90
56172;DHT22;42052;41.634;-0.946;2024-01-06T05:48:15;19.70;43.90
56172;DHT22;42052;41.634;-0.946;2024-01-06T05:50:41;19.70;43.80
56172;DHT22;42052;41.634;-0.946;2024-01-06T05:53:07;19.70;43.80
56172;DHT22;42052;41.634;-0.946;2024-01-06T05:55:33;19.70;43.60
56172;DHT22;42052;41.634;-0.946;2024-01-06T05:57:59;19.70;43.70
56172;DHT22;42052;41.634;-0.946;2024-01-06T06:00:26;19.70;43.70
56172;DHT22;42052;41.634;-0.946;2024-01-06T06:02:52;19.70;43.70
56172;DHT22;42052;41.634;-0.946;2024-01-06T06:05:18;19.70;43.70
56172;DHT22;42052;41.634;-0.946;2024-01-06T06:07:45;19.70;43.60
56172;DHT22;42052;41.634;-0.946;2024-01-06T06:10:11;19.70;43.60
56172;DHT22;42052;41.634;-0.946;2024-01-06T06:12:38;19.70;43.60
56172;DHT22;42052;41.634;-0.946;2024-01-06T06:15:05;19.70;43.70
56172;DHT22;42052;41.634;-0.946;2024-01-06T06:17:32;19.70;43.70
56172;DHT22;42052;41.634;-0.946;2024-01-06T06:19:59;19.70;43.70
56172;DHT22;42052;41.634;-0.946;2024-01-06T06:22:26;19.70;43.70
56172;DHT22;42052;41.634;-0.946;2024-01-06T06:24:59;19.70;43.60
56172;DHT22;42052;41.634;-0.946;2024-01-06T06:27:25;19.70;43.60
56172;DHT22;42052;41.634;-0.946;2024-01-06T06:29:52;19.80;43.70
56172;DHT22;42052;41.634;-0.946;2024-01-06T06:32:18;19.80;43.50
56172;DHT22;42052;41.634;-0.946;2024-01-06T06:34:44;19.80;43.50
56172;DHT22;42052;41.634;-0.946;2024-01-06T06:37:10;19.80;43.60
56172;DHT22;42052;41.634;-0.946;2024-01-06T06:39:36;19.80;43.60
56172;DHT22;42052;41.634;-0.946;2024-01-06T06:42:02;19.80;43.50
56172;DHT22;42052;41.634;-0.946;2024-01-06T06:44:28;19.80;43.60
56172;DHT22;42052;41.634;-0.946;2024-01-06T06:46:55;19.80;43.50
56172;DHT22;42052;41.634;-0.946;2024-01-06T06:49:22;19.80;43.40
56172;DHT22;42052;41.634;-0.946;2024-01-06T06:51:48;19.80;43.50
56172;DHT22;42052;41.634;-0.946;2024-01-06T06:54:14;19.80;43.40
56172;DHT22;42052;41.634;-0.946;2024-01-06T06:56:44;19.80;43.50
56172;DHT22;42052;41.634;-0.946;2024-01-06T06:59:10;19.80;43.40
56172;DHT22;42052;41.634;-0.946;2024-01-06T07:01:36;19.80;43.40
56172;DHT22;42052;41.634;-0.946;2024-01-06T07:04:02;19.80;43.50
56172;DHT22;42052;41.634;-0.946;2024-01-06T07:06:29;19.80;43.50
56172;DHT22;42052;41.634;-0.946;2024-01-06T07:08:56;19.80;43.40
56172;DHT22;42052;41.634;-0.946;2024-01-06T07:11:22;19.80;43.50
56172;DHT22;42052;41.634;-0.946;2024-01-06T07:13:49;19.80;43.50
56172;DHT22;42052;41.634;-0.946;2024-01-06T07:16:15;19.80;43.50
56172;DHT22;42052;41.634;-0.946;2024-01-06T07:18:40;19.80;43.50
56172;DHT22;42052;41.634;-0.946;2024-01-06T07:21:07;19.80;43.50
56172;DHT22;42052;41.634;-0.946;2024-01-06T07:23:33;19.80;43.50
56172;DHT22;42052;41.634;-0.946;2024-01-06T07:25:59;19.80;43.60
56172;DHT22;42052;41.634;-0.946;2024-01-06T07:28:26;19.80;43.50
56172;DHT22;42052;41.634;-0.946;2024-01-06T07:30:52;19.80;43.50
56172;DHT22;42052;41.634;-0.946;2024-01-06T07:33:18;19.80;43.50
56172;DHT22;42052;41.634;-0.946;2024-01-06T07:35:44;19.80;43.50
56172;DHT22;42052;41.634;-0.946;2024-01-06T07:38:10;19.80;43.40
56172;DHT22;42052;41.634;-0.946;2024-01-06T07:40:39;19.80;43.50
56172;DHT22;42052;41.634;-0.946;2024-01-06T07:43:05;19.90;43.40
56172;DHT22;42052;41.634;-0.946;2024-01-06T07:45:31;19.90;43.30
56172;DHT22;42052;41.634;-0.946;2024-01-06T07:47:58;19.90;43.40
56172;DHT22;42052;41.634;-0.946;2024-01-06T07:50:24;19.80;43.40
56172;DHT22;42052;41.634;-0.946;2024-01-06T07:52:50;19.90;43.60
56172;DHT22;42052;41.634;-0.946;2024-01-06T07:55:16;19.90;43.60
56172;DHT22;42052;41.634;-0.946;2024-01-06T07:57:42;19.90;43.60
56172;DHT22;42052;41.634;-0.946;2024-01-06T08:00:10;19.90;43.50
56172;DHT22;42052;41.634;-0.946;2024-01-06T08:02:36;19.90;43.30
56172;DHT22;42052;41.634;-0.946;2024-01-06T08:05:02;19.90;43.30
56172;DHT22;42052;41.634;-0.946;2024-01-06T08:07:28;19.90;43.30
56172;DHT22;42052;41.634;-0.946;2024-01-06T08:09:54;19.90;43.10
56172;DHT22;42052;41.634;-0.946;2024-01-06T08:12:20;19.90;43.10
56172;DHT22;42052;41.634;-0.946;2024-01-06T08:14:45;19.90;43.20
56172;DHT22;42052;41.634;-0.946;2024-01-06T08:17:11;19.90;43.00
56172;DHT22;42052;41.634;-0.946;2024-01-06T08:19:37;19.80;43.00
56172;DHT22;42052;41.634;-0.946;2024-01-06T08:22:03;19.80;43.10
56172;DHT22;42052;41.634;-0.946;2024-01-06T08:24:29;19.80;43.00
56172;DHT22;42052;41.634;-0.946;2024-01-06T08:26:55;19.80;43.00
56172;DHT22;42052;41.634;-0.946;2024-01-06T08:29:21;19.80;43.00
56172;DHT22;42052;41.634;-0.946;2024-01-06T08:31:46;19.70;42.90
56172;DHT22;42052;41.634;-0.946;2024-01-06T08:34:13;19.70;42.90
56172;DHT22;42052;41.634;-0.946;2024-01-06T08:36:38;19.70;43.00
56172;DHT22;42052;41.634;-0.946;2024-01-06T08:39:05;19.70;43.00
56172;DHT22;42052;41.634;-0.946;2024-01-06T08:41:30;19.70;43.00
56172;DHT22;42052;41.634;-0.946;2024-01-06T08:43:56;19.70;43.00
56172;DHT22;42052;41.634;-0.946;2024-01-06T08:46:22;19.70;43.00
56172;DHT22;42052;41.634;-0.946;2024-01-06T08:48:48;19.70;43.00
56172;DHT22;42052;41.634;-0.946;2024-01-06T08:51:14;19.70;43.00
56172;DHT22;42052;41.634;-0.946;2024-01-06T08:53:39;19.70;43.10
56172;DHT22;42052;41.634;-0.946;2024-01-06T08:56:05;19.70;43.00
56172;DHT22;42052;41.634;-0.946;2024-01-06T08:58:31;19.70;43.00
56172;DHT22;42052;41.634;-0.946;2024-01-06T09:00:57;19.70;43.00
56172;DHT22;42052;41.634;-0.946;2024-01-06T09:03:23;19.60;42.90
56172;DHT22;42052;41.634;-0.946;2024-01-06T09:05:56;19.70;43.00
56172;DHT22;42052;41.634;-0.946;2024-01-06T09:08:22;19.60;43.00
56172;DHT22;42052;41.634;-0.946;2024-01-06T09:10:49;19.70;43.00
56172;DHT22;42052;41.634;-0.946;2024-01-06T09:13:17;19.70;43.00
56172;DHT22;42052;41.634;-0.946;2024-01-06T09:15:43;19.70;43.00
56172;DHT22;42052;41.634;-0.946;2024-01-06T09:18:10;19.70;43.00
56172;DHT22;42052;41.634;-0.946;2024-01-06T09:20:36;19.70;42.90
56172;DHT22;42052;41.634;-0.946;2024-01-06T09:23:02;19.80;42.80
56172;DHT22;42052;41.634;-0.946;2024-01-06T09:25:28;19.70;42.80
56172;DHT22;42052;41.634;-0.946;2024-01-06T09:27:54;19.70;42.80
56172;DHT22;42052;41.634;-0.946;2024-01-06T09:30:20;19.70;42.70
56172;DHT22;42052;41.634;-0.946;2024-01-06T09:32:45;19.70;42.70
56172;DHT22;42052;41.634;-0.946;2024-01-06T09:35:11;19.70;42.70
56172;DHT22;42052;41.634;-0.946;2024-01-06T09:37:37;19.70;42.70
56172;DHT22;42052;41.634;-0.946;2024-01-06T09:40:03;19.70;42.70
56172;DHT22;42052;41.634;-0.946;2024-01-06T09:42:29;19.70;42.60
56172;DHT22;42052;41.634;-0.946;2024-01-06T09:44:55;19.70;42.60
56172;DHT22;42052;41.634;-0.946;2024-01-06T09:47:22;19.70;42.70
56172;DHT22;42052;41.634;-0.946;2024-01-06T09:49:50;19.70;42.60
56172;DHT22;42052;41.634;-0.946;2024-01-06T09:52:21;19.70;42.70
56172;DHT22;42052;41.634;-0.946;2024-01-06T09:54:54;19.70;42.60
56172;DHT22;42052;41.634;-0.946;2024-01-06T09:57:21;19.70;42.70
56172;DHT22;42052;41.634;-0.946;2024-01-06T09:59:48;19.70;42.70
56172;DHT22;42052;41.634;-0.946;2024-01-06T10:02:15;19.70;42.60
56172;DHT22;42052;41.634;-0.946;2024-01-06T10:04:43;19.70;42.70
56172;DHT22;42052;41.634;-0.946;2024-01-06T10:07:10;19.70;42.70
56172;DHT22;42052;41.634;-0.946;2024-01-06T10:09:38;19.60;42.60
56172;DHT22;42052;41.634;-0.946;2024-01-06T10:12:04;19.60;42.60
56172;DHT22;42052;41.634;-0.946;2024-01-06T10:14:30;19.70;42.70
56172;DHT22;42052;41.634;-0.946;2024-01-06T10:16:56;19.70;42.70
56172;DHT22;42052;41.634;-0.946;2024-01-06T10:19:23;19.70;42.80
56172;DHT22;42052;41.634;-0.946;2024-01-06T10:21:49;19.70;42.80
56172;DHT22;42052;41.634;-0.946;2024-01-06T10:24:18;19.70;42.70
56172;DHT22;42052;41.634;-0.946;2024-01-06T10:26:45;19.70;42.60
56172;DHT22;42052;41.634;-0.946;2024-01-06T10:29:13;19.80;42.50
56172;DHT22;42052;41.634;-0.946;2024-01-06T10:31:39;19.70;42.50
56172;DHT22;42052;41.634;-0.946;2024-01-06T10:34:06;19.70;42.40
56172;DHT22;42052;41.634;-0.946;2024-01-06T10:36:32;19.70;42.50
56172;DHT22;42052;41.634;-0.946;2024-01-06T10:38:58;19.70;42.50
56172;DHT22;42052;41.634;-0.946;2024-01-06T10:41:24;19.70;42.50
56172;DHT22;42052;41.634;-0.946;2024-01-06T10:43:51;19.70;42.50
56172;DHT22;42052;41.634;-0.946;2024-01-06T10:46:22;19.70;42.50
56172;DHT22;42052;41.634;-0.946;2024-01-06T10:48:50;19.70;42.50
56172;DHT22;42052;41.634;-0.946;2024-01-06T10:51:18;19.70;42.50
56172;DHT22;42052;41.634;-0.946;2024-01-06T10:53:44;19.70;42.60
56172;DHT22;42052;41.634;-0.946;2024-01-06T10:56:10;19.70;42.60
56172;DHT22;42052;41.634;-0.946;2024-01-06T10:58:37;19.70;42.60
56172;DHT22;42052;41.634;-0.946;2024-01-06T11:01:12;19.70;42.50
56172;DHT22;42052;41.634;-0.946;2024-01-06T11:03:38;19.70;42.40
56172;DHT22;42052;41.634;-0.946;2024-01-06T11:06:08;19.70;42.40
56172;DHT22;42052;41.634;-0.946;2024-01-06T11:11:51;19.70;42.50
56172;DHT22;42052;41.634;-0.946;2024-01-06T11:14:22;19.70;42.50
56172;DHT22;42052;41.634;-0.946;2024-01-06T11:16:50;19.70;42.50
56172;DHT22;42052;41.634;-0.946;2024-01-06T11:22:25;19.70;42.50
56172;DHT22;42052;41.634;-0.946;2024-01-06T11:24:56;19.70;42.50
56172;DHT22;42052;41.634;-0.946;2024-01-06T11:27:26;19.60;42.50
56172;DHT22;42052;41.634;-0.946;2024-01-06T11:29:58;19.70;42.50
56172;DHT22;42052;41.634;-0.946;2024-01-06T11:32:35;19.70;42.40
56172;DHT22;42052;41.634;-0.946;2024-01-06T11:35:15;19.60;42.40
56172;DHT22;42052;41.634;-0.946;2024-01-06T11:40:16;19.70;42.50
56172;DHT22;42052;41.634;-0.946;2024-01-06T11:43:10;19.70;42.50
56172;DHT22;42052;41.634;-0.946;2024-01-06T11:45:41;19.70;42.40
56172;DHT22;42052;41.634;-0.946;2024-01-06T11:48:09;19.70;42.70
56172;DHT22;42052;41.634;-0.946;2024-01-06T11:50:38;19.60;42.50
56172;DHT22;42052;41.634;-0.946;2024-01-06T11:53:05;19.70;42.50
56172;DHT22;42052;41.634;-0.946;2024-01-06T11:55:31;19.70;42.50
56172;DHT22;42052;41.634;-0.946;2024-01-06T11:57:58;19.70;42.40
56172;DHT22;42052;41.634;-0.946;2024-01-06T12:00:28;19.70;42.40
56172;DHT22;42052;41.634;-0.946;2024-01-06T12:02:58;19.60;42.30
56172;DHT22;42052;41.634;-0.946;2024-01-06T12:05:24;19.60;42.40
56172;DHT22;42052;41.634;-0.946;2024-01-06T12:08:02;19.60;42.40
56172;DHT22;42052;41.634;-0.946;2024-01-06T12:10:30;19.60;42.40
56172;DHT22;42052;41.634;-0.946;2024-01-06T12:15:25;19.60;42.40
56172;DHT22;42052;41.634;-0.946;2024-01-06T12:17:51;19.60;42.40
56172;DHT22;42052;41.634;-0.946;2024-01-06T12:20:18;19.60;42.40
56172;DHT22;42052;41.634;-0.946;2024-01-06T12:22:44;19.60;42.30
56172;DHT22;42052;41.634;-0.946;2024-01-06T12:25:10;19.60;42.40
56172;DHT22;42052;41.634;-0.946;2024-01-06T12:27:41;19.60;42.40
56172;DHT22;42052;41.634;-0.946;2024-01-06T12:30:15;19.60;42.40
56172;DHT22;42052;41.634;-0.946;2024-01-06T12:32:46;19.60;42.40
56172;DHT22;42052;41.634;-0.946;2024-01-06T12:35:13;19.60;42.40
56172;DHT22;42052;41.634;-0.946;2024-01-06T12:37:41;19.60;42.40
56172;DHT22;42052;41.634;-0.946;2024-01-06T12:40:09;19.60;42.40
56172;DHT22;42052;41.634;-0.946;2024-01-06T12:42:35;19.60;42.40
56172;DHT22;42052;41.634;-0.946;2024-01-06T12:45:02;19.60;42.40
56172;DHT22;42052;41.634;-0.946;2024-01-06T12:47:28;19.60;42.30
56172;DHT22;42052;41.634;-0.946;2024-01-06T12:49:54;19.60;42.30
56172;DHT22;42052;41.634;-0.946;2024-01-06T12:52:20;19.60;42.30
56172;DHT22;42052;41.634;-0.946;2024-01-06T12:54:46;19.60;42.30
56172;DHT22;42052;41.634;-0.946;2024-01-06T12:57:12;19.60;42.30
56172;DHT22;42052;41.634;-0.946;2024-01-06T12:59:38;19.60;42.30
56172;DHT22;42052;41.634;-0.946;2024-01-06T13:02:04;19.60;42.20
56172;DHT22;42052;41.634;-0.946;2024-01-06T13:04:29;19.60;42.20
56172;DHT22;42052;41.634;-0.946;2024-01-06T13:06:55;19.60;42.20
56172;DHT22;42052;41.634;-0.946;2024-01-06T13:09:21;19.60;42.20
56172;DHT22;42052;41.634;-0.946;2024-01-06T13:11:49;19.60;42.20
56172;DHT22;42052;41.634;-0.946;2024-01-06T13:14:17;19.60;42.30
56172;DHT22;42052;41.634;-0.946;2024-01-06T13:16:43;19.60;43.00
56172;DHT22;42052;41.634;-0.946;2024-01-06T13:19:09;19.60;42.30
56172;DHT22;42052;41.634;-0.946;2024-01-06T13:21:35;19.60;42.30
56172;DHT22;42052;41.634;-0.946;2024-01-06T13:24:01;19.60;42.20
56172;DHT22;42052;41.634;-0.946;2024-01-06T13:26:29;19.60;42.20
56172;DHT22;42052;41.634;-0.946;2024-01-06T13:28:56;19.60;42.10
56172;DHT22;42052;41.634;-0.946;2024-01-06T13:31:22;19.60;42.10
56172;DHT22;42052;41.634;-0.946;2024-01-06T13:33:49;19.60;42.10
56172;DHT22;42052;41.634;-0.946;2024-01-06T13:36:19;19.70;42.20
56172;DHT22;42052;41.634;-0.946;2024-01-06T13:38:45;19.60;42.00
56172;DHT22;42052;41.634;-0.946;2024-01-06T13:41:12;19.70;42.20
56172;DHT22;42052;41.634;-0.946;2024-01-06T13:43:38;19.60;42.10
56172;DHT22;42052;41.634;-0.946;2024-01-06T13:46:03;19.60;42.10
56172;DHT22;42052;41.634;-0.946;2024-01-06T13:48:29;19.60;41.90
56172;DHT22;42052;41.634;-0.946;2024-01-06T13:50:55;19.60;42.10
56172;DHT22;42052;41.634;-0.946;2024-01-06T13:53:22;19.60;42.10
56172;DHT22;42052;41.634;-0.946;2024-01-06T13:55:48;19.60;42.10
56172;DHT22;42052;41.634;-0.946;2024-01-06T13:58:14;19.60;42.00
56172;DHT22;42052;41.634;-0.946;2024-01-06T14:00:40;19.60;42.00
56172;DHT22;42052;41.634;-0.946;2024-01-06T14:03:06;19.60;42.00
56172;DHT22;42052;41.634;-0.946;2024-01-06T14:05:34;19.60;42.00
56172;DHT22;42052;41.634;-0.946;2024-01-06T14:08:00;19.60;42.10
56172;DHT22;42052;41.634;-0.946;2024-01-06T14:10:26;19.60;42.10
56172;DHT22;42052;41.634;-0.946;2024-01-06T14:12:53;19.60;42.10
56172;DHT22;42052;41.634;-0.946;2024-01-06T14:15:20;19.60;42.00
56172;DHT22;42052;41.634;-0.946;2024-01-06T14:17:46;19.60;42.00
56172;DHT22;42052;41.634;-0.946;2024-01-06T14:20:15;19.60;42.00
56172;DHT22;42052;41.634;-0.946;2024-01-06T14:22:44;19.60;42.20
56172;DHT22;42052;41.634;-0.946;2024-01-06T14:25:11;19.60;42.00
56172;DHT22;42052;41.634;-0.946;2024-01-06T14:27:37;19.60;42.00
56172;DHT22;42052;41.634;-0.946;2024-01-06T14:30:03;19.60;42.00
56172;DHT22;42052;41.634;-0.946;2024-01-06T14:32:29;19.60;42.10
56172;DHT22;42052;41.634;-0.946;2024-01-06T14:34:56;19.60;42.00
56172;DHT22;42052;41.634;-0.946;2024-01-06T14:37:21;19.60;42.00
56172;DHT22;42052;41.634;-0.946;2024-01-06T14:39:47;19.60;42.10
56172;DHT22;42052;41.634;-0.946;2024-01-06T14:42:13;19.60;42.20
56172;DHT22;42052;41.634;-0.946;2024-01-06T14:44:39;19.60;42.00
56172;DHT22;42052;41.634;-0.946;2024-01-06T14:47:05;19.60;42.00
56172;DHT22;42052;41.634;-0.946;2024-01-06T14:49:32;19.60;42.00
56172;DHT22;42052;41.634;-0.946;2024-01-06T14:51:58;19.60;42.10
56172;DHT22;42052;41.634;-0.946;2024-01-06T14:54:24;19.60;42.00
56172;DHT22;42052;41.634;-0.946;2024-01-06T14:56:50;19.60;42.10
56172;DHT22;42052;41.634;-0.946;2024-01-06T14:59:16;19.60;42.10
56172;DHT22;42052;41.634;-0.946;2024-01-06T15:01:43;19.60;42.00
56172;DHT22;42052;41.634;-0.946;2024-01-06T15:04:10;19.60;42.20
56172;DHT22;42052;41.634;-0.946;2024-01-06T15:06:35;19.60;42.10
56172;DHT22;42052;41.634;-0.946;2024-01-06T15:09:02;19.60;42.10
56172;DHT22;42052;41.634;-0.946;2024-01-06T15:11:28;19.60;42.00
56172;DHT22;42052;41.634;-0.946;2024-01-06T15:13:54;19.60;42.00
56172;DHT22;42052;41.634;-0.946;2024-01-06T15:16:20;19.60;42.00
56172;DHT22;42052;41.634;-0.946;2024-01-06T15:18:46;19.60;42.10
56172;DHT22;42052;41.634;-0.946;2024-01-06T15:21:13;19.60;42.10
56172;DHT22;42052;41.634;-0.946;2024-01-06T15:23:40;19.60;42.10